sensor_id;sensor_type;location;lat;lon;timestamp;P1;durP1;ratioP1;P2;durP2;ratioP2
81365;SDS011;70822;51.990;22.766;2023-07-29T00:01:31;9.20;;;4.53;;
81365;SDS011;70822;51.990;22.766;2023-07-29T00:16:35;7.50;;;5.37;;
81365;SDS011;70822;51.990;22.766;2023-07-29T00:31:40;7.43;;;5.00;;
81365;SDS011;70822;51.990;22.766;2023-07-29T00:46:45;6.97;;;5.03;;
81365;SDS011;70822;51.990;22.766;2023-07-29T01:01:52;9.50;;;5.87;;
81365;SDS011;70822;51.990;22.766;2023-07-29T01:16:57;11.67;;;7.27;;
81365;SDS011;70822;51.990;22.766;2023-07-29T01:32:09;8.90;;;6.20;;
81365;SDS011;70822;51.990;22.766;2023-07-29T01:47:17;9.43;;;6.47;;
81365;SDS011;70822;51.990;22.766;2023-07-29T02:02:22;8.83;;;5.93;;
81365;SDS011;70822;51.990;22.766;2023-07-29T02:17:27;11.53;;;6.63;;
81365;SDS011;70822;51.990;22.766;2023-07-29T02:32:32;9.97;;;6.97;;
81365;SDS011;70822;51.990;22.766;2023-07-29T03:02:55;9.27;;;5.50;;
81365;SDS011;70822;51.990;22.766;2023-07-29T03:18:00;7.83;;;5.03;;
81365;SDS011;70822;51.990;22.766;2023-07-29T03:33:06;9.60;;;5.90;;
81365;SDS011;70822;51.990;22.766;2023-07-29T03:48:11;8.50;;;6.07;;
81365;SDS011;70822;51.990;22.766;2023-07-29T04:03:17;5.83;;;4.27;;
81365;SDS011;70822;51.990;22.766;2023-07-29T04:18:23;4.90;;;4.33;;
81365;SDS011;70822;51.990;22.766;2023-07-29T04:33:30;4.80;;;4.30;;
81365;SDS011;70822;51.990;22.766;2023-07-29T04:48:37;4.97;;;4.37;;
81365;SDS011;70822;51.990;22.766;2023-07-29T05:03:41;8.50;;;5.40;;
81365;SDS011;70822;51.990;22.766;2023-07-29T05:18:48;7.20;;;6.03;;
81365;SDS011;70822;51.990;22.766;2023-07-29T05:33:54;5.73;;;5.17;;
81365;SDS011;70822;51.990;22.766;2023-07-29T05:48:59;6.10;;;5.60;;
81365;SDS011;70822;51.990;22.766;2023-07-29T06:04:04;6.53;;;5.53;;
81365;SDS011;70822;51.990;22.766;2023-07-29T06:19:10;7.17;;;4.87;;
81365;SDS011;70822;51.990;22.766;2023-07-29T06:34:19;5.30;;;4.80;;
81365;SDS011;70822;51.990;22.766;2023-07-29T06:49:23;4.80;;;4.00;;
81365;SDS011;70822;51.990;22.766;2023-07-29T07:04:29;4.93;;;4.43;;
81365;SDS011;70822;51.990;22.766;2023-07-29T07:19:34;5.00;;;3.97;;
81365;SDS011;70822;51.990;22.766;2023-07-29T07:34:38;5.17;;;3.97;;
81365;SDS011;70822;51.990;22.766;2023-07-29T07:49:43;4.10;;;3.30;;
81365;SDS011;70822;51.990;22.766;2023-07-29T08:04:48;4.43;;;3.60;;
81365;SDS011;70822;51.990;22.766;2023-07-29T08:19:53;4.20;;;3.17;;
81365;SDS011;70822;51.990;22.766;2023-07-29T08:34:57;5.30;;;3.50;;
81365;SDS011;70822;51.990;22.766;2023-07-29T08:50:03;3.83;;;2.97;;
81365;SDS011;70822;51.990;22.766;2023-07-29T09:05:09;3.60;;;2.80;;
81365;SDS011;70822;51.990;22.766;2023-07-29T09:20:14;4.47;;;2.70;;
81365;SDS011;70822;51.990;22.766;2023-07-29T09:35:18;3.57;;;2.60;;
81365;SDS011;70822;51.990;22.766;2023-07-29T09:50:24;2.80;;;2.50;;
81365;SDS011;70822;51.990;22.766;2023-07-29T10:05:29;2.10;;;1.90;;
81365;SDS011;70822;51.990;22.766;2023-07-29T10:20:34;2.27;;;2.03;;
81365;SDS011;70822;51.990;22.766;2023-07-29T10:35:40;2.30;;;2.00;;
81365;SDS011;70822;51.990;22.766;2023-07-29T10:50:46;4.83;;;1.73;;
81365;SDS011;70822;51.990;22.766;2023-07-29T11:05:51;2.73;;;2.10;;
81365;SDS011;70822;51.990;22.766;2023-07-29T11:20:57;6.33;;;2.07;;
81365;SDS011;70822;51.990;22.766;2023-07-29T11:36:02;2.20;;;1.83;;
81365;SDS011;70822;51.990;22.766;2023-07-29T11:51:10;1.60;;;1.33;;
81365;SDS011;70822;51.990;22.766;2023-07-29T12:06:16;2.77;;;1.70;;
81365;SDS011;70822;51.990;22.766;2023-07-29T12:21:21;2.43;;;1.70;;
81365;SDS011;70822;51.990;22.766;2023-07-29T12:36:28;2.40;;;1.50;;
81365;SDS011;70822;51.990;22.766;2023-07-29T12:51:45;1.73;;;1.60;;
81365;SDS011;70822;51.990;22.766;2023-07-29T13:06:51;2.57;;;1.47;;
81365;SDS011;70822;51.990;22.766;2023-07-29T13:21:56;2.27;;;1.83;;
81365;SDS011;70822;51.990;22.766;2023-07-29T13:37:01;4.77;;;1.90;;
81365;SDS011;70822;51.990;22.766;2023-07-29T13:52:07;1.90;;;1.53;;
81365;SDS011;70822;51.990;22.766;2023-07-29T14:07:12;2.50;;;1.63;;
81365;SDS011;70822;51.990;22.766;2023-07-29T14:22:16;2.60;;;1.90;;
81365;SDS011;70822;51.990;22.766;2023-07-29T14:37:21;1.83;;;1.63;;
81365;SDS011;70822;51.990;22.766;2023-07-29T14:52:26;1.50;;;1.40;;
81365;SDS011;70822;51.990;22.766;2023-07-29T15:07:31;1.70;;;1.60;;
81365;SDS011;70822;51.990;22.766;2023-07-29T15:22:36;1.50;;;1.40;;
81365;SDS011;70822;51.990;22.766;2023-07-29T15:37:40;1.63;;;1.43;;
81365;SDS011;70822;51.990;22.766;2023-07-29T15:52:45;2.00;;;1.73;;
81365;SDS011;70822;51.990;22.766;2023-07-29T16:07:50;2.37;;;1.90;;
81365;SDS011;70822;51.990;22.766;2023-07-29T16:22:57;3.20;;;2.40;;
81365;SDS011;70822;51.990;22.766;2023-07-29T16:38:02;2.30;;;1.97;;
81365;SDS011;70822;51.990;22.766;2023-07-29T16:53:07;2.53;;;2.00;;
81365;SDS011;70822;51.990;22.766;2023-07-29T17:08:12;2.33;;;2.00;;
81365;SDS011;70822;51.990;22.766;2023-07-29T17:23:17;6.03;;;3.37;;
81365;SDS011;70822;51.990;22.766;2023-07-29T17:38:22;11.20;;;5.33;;
81365;SDS011;70822;51.990;22.766;2023-07-29T17:53:27;8.77;;;5.03;;
81365;SDS011;70822;51.990;22.766;2023-07-29T18:08:32;7.87;;;4.70;;
81365;SDS011;70822;51.990;22.766;2023-07-29T18:23:38;5.60;;;3.57;;
81365;SDS011;70822;51.990;22.766;2023-07-29T18:38:44;9.83;;;4.37;;
81365;SDS011;70822;51.990;22.766;2023-07-29T18:53:49;8.87;;;6.47;;
81365;SDS011;70822;51.990;22.766;2023-07-29T19:08:54;10.30;;;7.03;;
81365;SDS011;70822;51.990;22.766;2023-07-29T19:23:59;8.77;;;5.50;;
81365;SDS011;70822;51.990;22.766;2023-07-29T19:39:05;9.90;;;6.90;;
81365;SDS011;70822;51.990;22.766;2023-07-29T19:54:10;8.90;;;5.67;;
81365;SDS011;70822;51.990;22.766;2023-07-29T20:09:15;5.40;;;4.03;;
81365;SDS011;70822;51.990;22.766;2023-07-29T20:24:20;7.40;;;4.73;;
81365;SDS011;70822;51.990;22.766;2023-07-29T20:39:24;8.13;;;5.23;;
81365;SDS011;70822;51.990;22.766;2023-07-29T20:54:30;6.73;;;4.70;;
81365;SDS011;70822;51.990;22.766;2023-07-29T21:09:35;4.73;;;3.63;;
81365;SDS011;70822;51.990;22.766;2023-07-29T21:24:41;5.97;;;4.10;;
81365;SDS011;70822;51.990;22.766;2023-07-29T21:39:46;6.73;;;3.70;;
81365;SDS011;70822;51.990;22.766;2023-07-29T21:54:51;4.60;;;3.53;;
81365;SDS011;70822;51.990;22.766;2023-07-29T22:25:00;6.17;;;4.10;;
81365;SDS011;70822;51.990;22.766;2023-07-29T22:40:06;5.23;;;3.60;;
81365;SDS011;70822;51.990;22.766;2023-07-29T22:55:12;5.67;;;3.63;;
81365;SDS011;70822;51.990;22.766;2023-07-29T23:10:17;6.30;;;3.63;;
81365;SDS011;70822;51.990;22.766;2023-07-29T23:25:21;4.97;;;3.90;;
81365;SDS011;70822;51.990;22.766;2023-07-29T23:40:28;6.70;;;3.37;;
81365;SDS011;70822;51.990;22.766;2023-07-29T23:55:32;7.17;;;4.13;;
